Clayhatchee, Alabama
Current Conditions -  °F | °C
As of 12:58 AM on Saturday 29 Nov 2014 (Local Time) from KOZR Reporting Station
Clear Clear  
Wind Chill: 35°   Ceiling: Unl
Heat Index: 35°   Visibility: 10mi
Dew Point: 31°   Wind: 2mph
Humidity: 84%   Direction: 50°NE
Pressure: 30.29"   Gusts: NA
Location:  31.2347°N, 85.7586°W
Report Text: KOZR 290658Z AUTO 05002KT 10SM CLR 02/00 A3029 RMK AO2 SLP261 T00191005 RVRNO
Loading
Personal Weather Stations






























Interactive Weather Map New forecast layout! Learn more

10-Day Weather Forecast

Advertisements
Track Severe Weather on mobile